sensor_id;sensor_type;location;lat;lon;timestamp;pressure;altitude;pressure_sealevel;temperature;humidity
62420;BME280;48460;51.616;5.426;2023-03-26T22:07:26;101188.84;;;3.03;100.00
62420;BME280;48460;51.616;5.426;2023-03-26T22:10:02;101195.03;;;2.95;100.00
62420;BME280;48460;51.616;5.426;2023-03-26T22:12:27;101191.63;;;2.90;100.00
62420;BME280;48460;51.616;5.426;2023-03-26T22:14:55;101203.78;;;2.90;100.00
62420;BME280;48460;51.616;5.426;2023-03-26T22:17:29;101187.47;;;2.79;100.00
62420;BME280;48460;51.616;5.426;2023-03-26T22:19:57;101191.81;;;2.80;100.00
62420;BME280;48460;51.616;5.426;2023-03-26T22:22:22;101183.28;;;2.70;100.00
62420;BME280;48460;51.616;5.426;2023-03-26T22:24:50;101202.25;;;2.75;100.00
62420;BME280;48460;51.616;5.426;2023-03-26T22:27:16;101212.59;;;2.78;100.00
62420;BME280;48460;51.616;5.426;2023-03-26T22:29:44;101215.25;;;2.73;100.00
62420;BME280;48460;51.616;5.426;2023-03-26T22:32:10;101211.88;;;2.68;100.00
62420;BME280;48460;51.616;5.426;2023-03-26T22:34:42;101217.06;;;2.68;100.00
62420;BME280;48460;51.616;5.426;2023-03-26T22:37:09;101235.16;;;2.73;100.00
62420;BME280;48460;51.616;5.426;2023-03-26T22:39:37;101228.34;;;2.66;100.00
62420;BME280;48460;51.616;5.426;2023-03-26T22:42:04;101243.84;;;2.70;100.00
62420;BME280;48460;51.616;5.426;2023-03-26T22:44:33;101235.28;;;2.65;100.00
62420;BME280;48460;51.616;5.426;2023-03-26T22:46:58;101245.72;;;2.62;100.00
62420;BME280;48460;51.616;5.426;2023-03-26T22:49:25;101255.22;;;2.65;100.00
62420;BME280;48460;51.616;5.426;2023-03-26T22:51:52;101259.56;;;2.61;100.00
62420;BME280;48460;51.616;5.426;2023-03-26T22:54:18;101263.03;;;2.59;100.00
62420;BME280;48460;51.616;5.426;2023-03-26T22:56:43;101264.00;;;2.53;100.00
62420;BME280;48460;51.616;5.426;2023-03-26T22:59:09;101269.22;;;2.48;100.00
62420;BME280;48460;51.616;5.426;2023-03-26T23:01:35;101273.59;;;2.45;100.00
62420;BME280;48460;51.616;5.426;2023-03-26T23:04:01;101278.84;;;2.42;100.00
62420;BME280;48460;51.616;5.426;2023-03-26T23:06:27;101284.06;;;2.37;100.00
62420;BME280;48460;51.616;5.426;2023-03-26T23:08:54;101289.25;;;2.37;100.00
62420;BME280;48460;51.616;5.426;2023-03-26T23:11:21;101293.56;;;2.40;100.00
62420;BME280;48460;51.616;5.426;2023-03-26T23:13:47;101288.47;;;2.32;100.00
62420;BME280;48460;51.616;5.426;2023-03-26T23:16:13;101291.06;;;2.31;100.00
62420;BME280;48460;51.616;5.426;2023-03-26T23:18:40;101310.03;;;2.37;100.00
62420;BME280;48460;51.616;5.426;2023-03-26T23:21:11;101314.31;;;2.40;100.00
62420;BME280;48460;51.616;5.426;2023-03-26T23:23:38;101313.41;;;2.44;100.00
62420;BME280;48460;51.616;5.426;2023-03-26T23:26:04;101319.44;;;2.46;100.00
62420;BME280;48460;51.616;5.426;2023-03-26T23:28:32;101327.22;;;2.47;100.00
62420;BME280;48460;51.616;5.426;2023-03-26T23:30:59;101333.25;;;2.49;100.00
62420;BME280;48460;51.616;5.426;2023-03-26T23:33:28;101329.75;;;2.52;100.00
62420;BME280;48460;51.616;5.426;2023-03-26T23:35:55;101346.16;;;2.57;100.00
62420;BME280;48460;51.616;5.426;2023-03-26T23:38:27;101347.00;;;2.59;100.00
62420;BME280;48460;51.616;5.426;2023-03-26T23:40:54;101342.63;;;2.63;100.00
62420;BME280;48460;51.616;5.426;2023-03-26T23:43:22;101324.59;;;2.50;100.00
62420;BME280;48460;51.616;5.426;2023-03-26T23:45:48;101336.59;;;2.62;100.00
62420;BME280;48460;51.616;5.426;2023-03-26T23:48:15;101340.88;;;2.65;100.00
62420;BME280;48460;51.616;5.426;2023-03-26T23:50:43;101350.28;;;2.73;100.00
62420;BME280;48460;51.616;5.426;2023-03-26T23:53:12;101352.03;;;2.74;100.00
62420;BME280;48460;51.616;5.426;2023-03-26T23:55:38;101348.47;;;2.82;100.00
62420;BME280;48460;51.616;5.426;2023-03-26T23:58:06;101351.09;;;2.79;100.00
